sensor_id;sensor_type;location;lat;lon;timestamp;P1;durP1;ratioP1;P2;durP2;ratioP2
65759;SDS011;52496;51.082;5.066;2022-12-24T00:00:07;36.08;;;5.85;;
65759;SDS011;52496;51.082;5.066;2022-12-24T00:02:39;25.27;;;5.28;;
65759;SDS011;52496;51.082;5.066;2022-12-24T00:05:10;29.85;;;6.25;;
65759;SDS011;52496;51.082;5.066;2022-12-24T00:07:41;37.05;;;6.43;;
65759;SDS011;52496;51.082;5.066;2022-12-24T00:10:11;23.45;;;5.38;;
65759;SDS011;52496;51.082;5.066;2022-12-24T00:12:42;30.50;;;6.50;;
65759;SDS011;52496;51.082;5.066;2022-12-24T00:15:14;23.92;;;4.82;;
65759;SDS011;52496;51.082;5.066;2022-12-24T00:17:44;34.33;;;6.63;;
65759;SDS011;52496;51.082;5.066;2022-12-24T00:20:15;24.58;;;4.57;;
65759;SDS011;52496;51.082;5.066;2022-12-24T00:22:45;22.88;;;5.35;;
65759;SDS011;52496;51.082;5.066;2022-12-24T00:25:16;23.77;;;4.80;;
65759;SDS011;52496;51.082;5.066;2022-12-24T00:27:46;25.58;;;5.15;;
65759;SDS011;52496;51.082;5.066;2022-12-24T00:30:17;21.73;;;5.50;;
65759;SDS011;52496;51.082;5.066;2022-12-24T00:32:47;16.45;;;4.22;;
65759;SDS011;52496;51.082;5.066;2022-12-24T00:35:18;27.13;;;4.78;;
65759;SDS011;52496;51.082;5.066;2022-12-24T00:37:49;31.23;;;5.30;;
65759;SDS011;52496;51.082;5.066;2022-12-24T00:40:20;25.80;;;5.03;;
65759;SDS011;52496;51.082;5.066;2022-12-24T00:42:51;23.35;;;4.65;;
65759;SDS011;52496;51.082;5.066;2022-12-24T00:45:21;24.05;;;4.80;;
65759;SDS011;52496;51.082;5.066;2022-12-24T00:47:52;24.15;;;5.85;;
65759;SDS011;52496;51.082;5.066;2022-12-24T00:50:23;26.08;;;5.32;;
65759;SDS011;52496;51.082;5.066;2022-12-24T00:52:53;25.60;;;5.18;;
65759;SDS011;52496;51.082;5.066;2022-12-24T00:55:24;21.42;;;4.95;;
65759;SDS011;52496;51.082;5.066;2022-12-24T00:57:55;30.25;;;5.85;;
65759;SDS011;52496;51.082;5.066;2022-12-24T01:00:25;19.63;;;5.43;;
65759;SDS011;52496;51.082;5.066;2022-12-24T01:02:56;27.30;;;3.88;;
65759;SDS011;52496;51.082;5.066;2022-12-24T01:05:26;27.60;;;4.65;;
65759;SDS011;52496;51.082;5.066;2022-12-24T01:07:57;22.45;;;4.47;;
65759;SDS011;52496;51.082;5.066;2022-12-24T01:10:27;26.13;;;4.40;;
65759;SDS011;52496;51.082;5.066;2022-12-24T01:13:01;19.88;;;3.95;;
65759;SDS011;52496;51.082;5.066;2022-12-24T01:15:32;23.65;;;5.50;;
65759;SDS011;52496;51.082;5.066;2022-12-24T01:18:03;27.38;;;4.95;;
65759;SDS011;52496;51.082;5.066;2022-12-24T01:20:33;22.05;;;4.00;;
65759;SDS011;52496;51.082;5.066;2022-12-24T01:23:05;34.28;;;6.18;;
65759;SDS011;52496;51.082;5.066;2022-12-24T01:25:38;27.65;;;4.32;;
65759;SDS011;52496;51.082;5.066;2022-12-24T01:28:09;21.98;;;4.05;;
65759;SDS011;52496;51.082;5.066;2022-12-24T01:30:40;22.40;;;4.78;;
65759;SDS011;52496;51.082;5.066;2022-12-24T01:33:11;16.88;;;4.70;;
65759;SDS011;52496;51.082;5.066;2022-12-24T01:35:42;21.75;;;4.63;;
65759;SDS011;52496;51.082;5.066;2022-12-24T01:38:13;22.10;;;4.57;;
65759;SDS011;52496;51.082;5.066;2022-12-24T01:40:44;17.77;;;4.38;;
65759;SDS011;52496;51.082;5.066;2022-12-24T01:43:33;25.17;;;4.32;;
65759;SDS011;52496;51.082;5.066;2022-12-24T01:46:04;16.17;;;4.40;;
65759;SDS011;52496;51.082;5.066;2022-12-24T01:51:43;20.80;;;4.28;;
65759;SDS011;52496;51.082;5.066;2022-12-24T01:54:24;24.15;;;4.00;;
65759;SDS011;52496;51.082;5.066;2022-12-24T01:57:06;22.80;;;3.88;;
65759;SDS011;52496;51.082;5.066;2022-12-24T01:59:43;28.77;;;6.43;;
65759;SDS011;52496;51.082;5.066;2022-12-24T02:02:17;25.15;;;4.10;;
65759;SDS011;52496;51.082;5.066;2022-12-24T02:07:41;18.40;;;3.97;;
65759;SDS011;52496;51.082;5.066;2022-12-24T02:10:13;15.55;;;3.80;;
65759;SDS011;52496;51.082;5.066;2022-12-24T02:12:44;17.95;;;3.53;;
65759;SDS011;52496;51.082;5.066;2022-12-24T02:15:17;18.55;;;4.30;;
65759;SDS011;52496;51.082;5.066;2022-12-24T02:31:40;11.63;;;3.40;;
65759;SDS011;52496;51.082;5.066;2022-12-24T02:34:32;16.40;;;4.25;;
65759;SDS011;52496;51.082;5.066;2022-12-24T02:37:12;16.75;;;3.00;;
65759;SDS011;52496;51.082;5.066;2022-12-24T02:42:24;20.45;;;4.32;;
65759;SDS011;52496;51.082;5.066;2022-12-24T02:45:03;17.15;;;4.00;;
65759;SDS011;52496;51.082;5.066;2022-12-24T02:47:38;15.80;;;3.33;;
65759;SDS011;52496;51.082;5.066;2022-12-24T02:50:12;20.55;;;5.45;;
65759;SDS011;52496;51.082;5.066;2022-12-24T02:52:46;17.08;;;3.78;;
65759;SDS011;52496;51.082;5.066;2022-12-24T02:55:27;19.42;;;4.88;;
65759;SDS011;52496;51.082;5.066;2022-12-24T03:12:47;26.75;;;4.78;;
65759;SDS011;52496;51.082;5.066;2022-12-24T03:15:21;20.50;;;4.63;;
65759;SDS011;52496;51.082;5.066;2022-12-24T03:17:55;21.42;;;5.78;;
65759;SDS011;52496;51.082;5.066;2022-12-24T03:20:31;20.30;;;4.63;;
65759;SDS011;52496;51.082;5.066;2022-12-24T03:23:06;23.52;;;4.93;;
65759;SDS011;52496;51.082;5.066;2022-12-24T03:25:39;22.17;;;4.50;;
65759;SDS011;52496;51.082;5.066;2022-12-24T03:28:12;18.02;;;5.28;;
65759;SDS011;52496;51.082;5.066;2022-12-24T03:30:46;23.23;;;4.25;;
65759;SDS011;52496;51.082;5.066;2022-12-24T03:33:18;16.55;;;4.88;;
65759;SDS011;52496;51.082;5.066;2022-12-24T03:35:49;26.25;;;5.38;;
65759;SDS011;52496;51.082;5.066;2022-12-24T03:38:19;24.67;;;4.88;;
65759;SDS011;52496;51.082;5.066;2022-12-24T03:40:50;17.73;;;4.72;;
65759;SDS011;52496;51.082;5.066;2022-12-24T03:43:20;26.42;;;5.10;;
65759;SDS011;52496;51.082;5.066;2022-12-24T03:45:51;20.15;;;5.07;;
65759;SDS011;52496;51.082;5.066;2022-12-24T03:48:22;24.15;;;5.32;;
65759;SDS011;52496;51.082;5.066;2022-12-24T03:50:53;24.83;;;5.18;;
65759;SDS011;52496;51.082;5.066;2022-12-24T03:53:24;20.42;;;5.40;;
65759;SDS011;52496;51.082;5.066;2022-12-24T03:55:54;16.88;;;4.65;;
65759;SDS011;52496;51.082;5.066;2022-12-24T03:58:25;25.52;;;3.97;;
65759;SDS011;52496;51.082;5.066;2022-12-24T04:00:56;15.68;;;4.47;;
65759;SDS011;52496;51.082;5.066;2022-12-24T04:03:26;23.25;;;5.00;;
65759;SDS011;52496;51.082;5.066;2022-12-24T04:06:04;17.90;;;4.28;;
65759;SDS011;52496;51.082;5.066;2022-12-24T04:08:39;26.25;;;5.13;;
65759;SDS011;52496;51.082;5.066;2022-12-24T04:11:12;26.15;;;4.35;;
65759;SDS011;52496;51.082;5.066;2022-12-24T04:13:44;21.02;;;5.03;;
65759;SDS011;52496;51.082;5.066;2022-12-24T04:16:16;17.80;;;3.80;;
65759;SDS011;52496;51.082;5.066;2022-12-24T04:18:47;18.02;;;4.40;;
65759;SDS011;52496;51.082;5.066;2022-12-24T04:21:18;20.55;;;4.93;;
65759;SDS011;52496;51.082;5.066;2022-12-24T04:23:48;19.35;;;4.70;;
65759;SDS011;52496;51.082;5.066;2022-12-24T04:26:19;21.65;;;4.78;;
65759;SDS011;52496;51.082;5.066;2022-12-24T04:28:49;15.63;;;4.60;;
65759;SDS011;52496;51.082;5.066;2022-12-24T04:31:20;17.90;;;4.72;;
65759;SDS011;52496;51.082;5.066;2022-12-24T04:33:51;20.85;;;4.43;;
65759;SDS011;52496;51.082;5.066;2022-12-24T04:36:22;20.85;;;4.88;;
65759;SDS011;52496;51.082;5.066;2022-12-24T04:38:53;23.73;;;5.82;;
65759;SDS011;52496;51.082;5.066;2022-12-24T04:41:23;20.23;;;4.18;;
65759;SDS011;52496;51.082;5.066;2022-12-24T04:43:54;19.55;;;4.57;;
65759;SDS011;52496;51.082;5.066;2022-12-24T04:46:26;20.70;;;4.85;;
65759;SDS011;52496;51.082;5.066;2022-12-24T04:49:01;20.27;;;4.75;;
65759;SDS011;52496;51.082;5.066;2022-12-24T04:51:31;21.83;;;4.25;;
65759;SDS011;52496;51.082;5.066;2022-12-24T04:54:02;24.38;;;5.28;;
65759;SDS011;52496;51.082;5.066;2022-12-24T04:56:33;16.83;;;5.22;;
65759;SDS011;52496;51.082;5.066;2022-12-24T04:59:03;24.00;;;6.00;;
65759;SDS011;52496;51.082;5.066;2022-12-24T05:01:34;24.92;;;6.18;;
65759;SDS011;52496;51.082;5.066;2022-12-24T05:04:05;19.30;;;5.03;;
65759;SDS011;52496;51.082;5.066;2022-12-24T05:06:36;18.33;;;5.50;;
65759;SDS011;52496;51.082;5.066;2022-12-24T05:09:06;22.45;;;5.05;;
65759;SDS011;52496;51.082;5.066;2022-12-24T05:11:37;29.38;;;5.47;;
65759;SDS011;52496;51.082;5.066;2022-12-24T05:14:07;18.90;;;5.13;;
65759;SDS011;52496;51.082;5.066;2022-12-24T05:16:38;28.60;;;6.45;;
65759;SDS011;52496;51.082;5.066;2022-12-24T05:19:08;27.25;;;5.65;;
65759;SDS011;52496;51.082;5.066;2022-12-24T05:21:39;21.58;;;5.05;;
65759;SDS011;52496;51.082;5.066;2022-12-24T05:24:10;22.83;;;4.72;;
65759;SDS011;52496;51.082;5.066;2022-12-24T05:26:59;28.45;;;5.72;;
65759;SDS011;52496;51.082;5.066;2022-12-24T05:29:29;26.20;;;5.60;;
65759;SDS011;52496;51.082;5.066;2022-12-24T05:32:00;24.60;;;6.45;;
65759;SDS011;52496;51.082;5.066;2022-12-24T05:34:31;19.23;;;5.05;;
65759;SDS011;52496;51.082;5.066;2022-12-24T05:37:01;26.55;;;5.68;;
65759;SDS011;52496;51.082;5.066;2022-12-24T05:39:32;25.02;;;5.25;;
65759;SDS011;52496;51.082;5.066;2022-12-24T05:42:02;23.20;;;4.65;;
65759;SDS011;52496;51.082;5.066;2022-12-24T05:44:33;21.23;;;5.10;;
65759;SDS011;52496;51.082;5.066;2022-12-24T05:47:03;24.05;;;4.95;;
65759;SDS011;52496;51.082;5.066;2022-12-24T05:49:34;28.33;;;6.75;;
65759;SDS011;52496;51.082;5.066;2022-12-24T05:52:04;23.17;;;5.47;;
65759;SDS011;52496;51.082;5.066;2022-12-24T05:54:35;22.17;;;5.20;;
65759;SDS011;52496;51.082;5.066;2022-12-24T05:57:06;22.58;;;5.85;;
65759;SDS011;52496;51.082;5.066;2022-12-24T05:59:38;21.63;;;5.18;;
65759;SDS011;52496;51.082;5.066;2022-12-24T06:02:08;25.50;;;5.90;;
65759;SDS011;52496;51.082;5.066;2022-12-24T06:04:45;23.40;;;5.25;;
65759;SDS011;52496;51.082;5.066;2022-12-24T06:07:16;25.88;;;4.57;;
65759;SDS011;52496;51.082;5.066;2022-12-24T06:09:46;28.02;;;5.95;;
65759;SDS011;52496;51.082;5.066;2022-12-24T06:12:23;27.60;;;5.15;;
65759;SDS011;52496;51.082;5.066;2022-12-24T06:14:53;24.73;;;4.85;;
65759;SDS011;52496;51.082;5.066;2022-12-24T06:17:25;20.60;;;4.72;;
65759;SDS011;52496;51.082;5.066;2022-12-24T06:19:55;17.80;;;4.22;;
65759;SDS011;52496;51.082;5.066;2022-12-24T06:22:40;23.02;;;4.40;;
65759;SDS011;52496;51.082;5.066;2022-12-24T06:25:11;19.63;;;4.75;;
65759;SDS011;52496;51.082;5.066;2022-12-24T06:27:43;24.75;;;5.10;;
65759;SDS011;52496;51.082;5.066;2022-12-24T06:30:13;28.23;;;4.95;;
65759;SDS011;52496;51.082;5.066;2022-12-24T06:32:46;21.73;;;4.88;;
65759;SDS011;52496;51.082;5.066;2022-12-24T06:35:17;23.35;;;5.70;;
65759;SDS011;52496;51.082;5.066;2022-12-24T06:37:47;25.33;;;4.13;;
65759;SDS011;52496;51.082;5.066;2022-12-24T06:40:18;28.23;;;5.82;;
65759;SDS011;52496;51.082;5.066;2022-12-24T06:42:48;25.45;;;5.28;;
65759;SDS011;52496;51.082;5.066;2022-12-24T06:45:19;23.77;;;4.78;;
65759;SDS011;52496;51.082;5.066;2022-12-24T06:47:50;25.75;;;4.80;;
65759;SDS011;52496;51.082;5.066;2022-12-24T06:50:21;23.55;;;5.47;;
65759;SDS011;52496;51.082;5.066;2022-12-24T06:52:52;26.08;;;5.95;;
65759;SDS011;52496;51.082;5.066;2022-12-24T06:55:23;27.92;;;5.30;;
65759;SDS011;52496;51.082;5.066;2022-12-24T06:57:54;27.65;;;6.20;;
65759;SDS011;52496;51.082;5.066;2022-12-24T07:00:24;31.67;;;6.45;;
65759;SDS011;52496;51.082;5.066;2022-12-24T07:02:55;25.45;;;5.03;;
65759;SDS011;52496;51.082;5.066;2022-12-24T07:05:25;26.45;;;4.22;;
65759;SDS011;52496;51.082;5.066;2022-12-24T07:07:56;26.45;;;5.53;;
65759;SDS011;52496;51.082;5.066;2022-12-24T07:10:26;24.50;;;6.38;;
65759;SDS011;52496;51.082;5.066;2022-12-24T07:12:57;33.05;;;5.85;;
65759;SDS011;52496;51.082;5.066;2022-12-24T07:15:28;24.00;;;6.03;;
65759;SDS011;52496;51.082;5.066;2022-12-24T07:17:58;23.58;;;6.25;;
65759;SDS011;52496;51.082;5.066;2022-12-24T07:20:29;23.95;;;5.10;;
65759;SDS011;52496;51.082;5.066;2022-12-24T07:23:02;30.35;;;6.00;;
65759;SDS011;52496;51.082;5.066;2022-12-24T07:25:33;35.83;;;5.18;;
65759;SDS011;52496;51.082;5.066;2022-12-24T07:28:03;23.23;;;5.80;;
65759;SDS011;52496;51.082;5.066;2022-12-24T07:30:34;23.02;;;5.00;;
65759;SDS011;52496;51.082;5.066;2022-12-24T07:33:04;24.80;;;4.95;;
65759;SDS011;52496;51.082;5.066;2022-12-24T07:35:35;34.47;;;4.72;;
65759;SDS011;52496;51.082;5.066;2022-12-24T07:38:05;26.85;;;5.88;;
65759;SDS011;52496;51.082;5.066;2022-12-24T07:40:37;23.15;;;5.55;;
65759;SDS011;52496;51.082;5.066;2022-12-24T07:43:07;33.75;;;5.60;;
65759;SDS011;52496;51.082;5.066;2022-12-24T07:45:38;27.83;;;5.90;;
65759;SDS011;52496;51.082;5.066;2022-12-24T07:48:08;29.90;;;5.20;;
65759;SDS011;52496;51.082;5.066;2022-12-24T07:50:39;25.27;;;4.78;;
65759;SDS011;52496;51.082;5.066;2022-12-24T07:53:09;27.50;;;4.65;;
65759;SDS011;52496;51.082;5.066;2022-12-24T07:55:40;25.33;;;5.70;;
65759;SDS011;52496;51.082;5.066;2022-12-24T07:58:10;31.02;;;6.22;;
65759;SDS011;52496;51.082;5.066;2022-12-24T08:00:41;30.40;;;5.18;;
65759;SDS011;52496;51.082;5.066;2022-12-24T08:03:18;20.13;;;5.50;;
65759;SDS011;52496;51.082;5.066;2022-12-24T08:05:50;27.55;;;5.85;;
65759;SDS011;52496;51.082;5.066;2022-12-24T08:08:21;29.27;;;6.15;;
65759;SDS011;52496;51.082;5.066;2022-12-24T08:10:52;28.02;;;5.68;;
65759;SDS011;52496;51.082;5.066;2022-12-24T08:13:22;23.15;;;5.07;;
65759;SDS011;52496;51.082;5.066;2022-12-24T08:15:53;27.25;;;4.70;;
65759;SDS011;52496;51.082;5.066;2022-12-24T08:18:24;31.10;;;5.57;;
65759;SDS011;52496;51.082;5.066;2022-12-24T08:20:54;25.52;;;5.05;;
65759;SDS011;52496;51.082;5.066;2022-12-24T08:23:25;26.77;;;6.00;;
65759;SDS011;52496;51.082;5.066;2022-12-24T08:25:56;31.63;;;5.50;;
65759;SDS011;52496;51.082;5.066;2022-12-24T08:28:26;25.15;;;5.20;;
65759;SDS011;52496;51.082;5.066;2022-12-24T08:30:57;24.80;;;6.22;;
65759;SDS011;52496;51.082;5.066;2022-12-24T08:33:28;45.55;;;6.50;;
65759;SDS011;52496;51.082;5.066;2022-12-24T08:35:59;18.48;;;5.07;;
65759;SDS011;52496;51.082;5.066;2022-12-24T08:38:31;25.05;;;6.10;;
65759;SDS011;52496;51.082;5.066;2022-12-24T08:41:02;33.75;;;5.53;;
65759;SDS011;52496;51.082;5.066;2022-12-24T08:43:32;25.20;;;5.10;;
65759;SDS011;52496;51.082;5.066;2022-12-24T08:46:03;18.50;;;5.13;;
65759;SDS011;52496;51.082;5.066;2022-12-24T08:48:34;23.45;;;5.05;;
65759;SDS011;52496;51.082;5.066;2022-12-24T08:51:08;25.30;;;6.43;;
65759;SDS011;52496;51.082;5.066;2022-12-24T08:53:40;20.00;;;4.95;;
65759;SDS011;52496;51.082;5.066;2022-12-24T08:56:11;27.58;;;6.22;;
65759;SDS011;52496;51.082;5.066;2022-12-24T08:58:41;28.35;;;5.90;;
65759;SDS011;52496;51.082;5.066;2022-12-24T09:01:15;18.75;;;4.95;;
65759;SDS011;52496;51.082;5.066;2022-12-24T09:03:50;26.88;;;5.82;;
65759;SDS011;52496;51.082;5.066;2022-12-24T09:06:20;29.50;;;5.40;;
65759;SDS011;52496;51.082;5.066;2022-12-24T09:08:52;30.85;;;5.13;;
65759;SDS011;52496;51.082;5.066;2022-12-24T09:11:23;28.33;;;5.15;;
65759;SDS011;52496;51.082;5.066;2022-12-24T09:13:54;25.85;;;4.93;;
65759;SDS011;52496;51.082;5.066;2022-12-24T09:16:24;27.25;;;6.15;;
65759;SDS011;52496;51.082;5.066;2022-12-24T09:18:55;27.45;;;6.07;;
65759;SDS011;52496;51.082;5.066;2022-12-24T09:21:27;29.27;;;6.05;;
65759;SDS011;52496;51.082;5.066;2022-12-24T09:23:57;34.78;;;6.25;;
65759;SDS011;52496;51.082;5.066;2022-12-24T09:26:30;26.55;;;5.43;;
65759;SDS011;52496;51.082;5.066;2022-12-24T09:29:01;20.95;;;5.28;;
65759;SDS011;52496;51.082;5.066;2022-12-24T09:31:32;28.73;;;6.30;;
65759;SDS011;52496;51.082;5.066;2022-12-24T09:34:02;22.45;;;5.35;;
65759;SDS011;52496;51.082;5.066;2022-12-24T09:36:33;22.23;;;5.82;;
65759;SDS011;52496;51.082;5.066;2022-12-24T09:39:04;21.75;;;5.38;;
65759;SDS011;52496;51.082;5.066;2022-12-24T09:41:46;26.10;;;5.45;;
65759;SDS011;52496;51.082;5.066;2022-12-24T09:44:37;37.20;;;6.93;;
65759;SDS011;52496;51.082;5.066;2022-12-24T09:47:58;25.75;;;5.55;;
65759;SDS011;52496;51.082;5.066;2022-12-24T09:53:02;26.10;;;4.80;;
65759;SDS011;52496;51.082;5.066;2022-12-24T09:55:43;35.10;;;5.85;;
65759;SDS011;52496;51.082;5.066;2022-12-24T09:58:30;25.20;;;5.07;;
65759;SDS011;52496;51.082;5.066;2022-12-24T10:01:09;22.33;;;5.30;;
65759;SDS011;52496;51.082;5.066;2022-12-24T10:03:42;20.63;;;4.95;;
65759;SDS011;52496;51.082;5.066;2022-12-24T10:06:21;27.30;;;5.38;;
65759;SDS011;52496;51.082;5.066;2022-12-24T10:22:36;22.05;;;5.45;;
65759;SDS011;52496;51.082;5.066;2022-12-24T10:25:29;29.27;;;5.30;;
65759;SDS011;52496;51.082;5.066;2022-12-24T10:28:13;27.77;;;5.35;;
65759;SDS011;52496;51.082;5.066;2022-12-24T10:30:47;19.75;;;5.43;;
65759;SDS011;52496;51.082;5.066;2022-12-24T10:33:24;28.95;;;6.30;;
65759;SDS011;52496;51.082;5.066;2022-12-24T10:36:11;23.63;;;6.68;;
65759;SDS011;52496;51.082;5.066;2022-12-24T10:38:47;30.80;;;5.85;;
65759;SDS011;52496;51.082;5.066;2022-12-24T10:41:17;23.42;;;5.45;;
65759;SDS011;52496;51.082;5.066;2022-12-24T10:43:48;24.05;;;5.35;;
65759;SDS011;52496;51.082;5.066;2022-12-24T10:46:23;21.83;;;4.72;;
65759;SDS011;52496;51.082;5.066;2022-12-24T10:49:10;20.63;;;4.95;;
65759;SDS011;52496;51.082;5.066;2022-12-24T10:51:52;23.30;;;6.70;;
65759;SDS011;52496;51.082;5.066;2022-12-24T10:54:25;17.98;;;5.25;;
65759;SDS011;52496;51.082;5.066;2022-12-24T10:56:58;20.45;;;5.28;;
65759;SDS011;52496;51.082;5.066;2022-12-24T10:59:33;22.35;;;4.80;;
65759;SDS011;52496;51.082;5.066;2022-12-24T11:04:54;25.00;;;6.03;;
65759;SDS011;52496;51.082;5.066;2022-12-24T11:07:25;27.10;;;5.93;;
65759;SDS011;52496;51.082;5.066;2022-12-24T11:10:00;23.55;;;5.63;;
65759;SDS011;52496;51.082;5.066;2022-12-24T11:12:39;29.17;;;5.07;;
65759;SDS011;52496;51.082;5.066;2022-12-24T11:15:18;26.42;;;4.97;;
65759;SDS011;52496;51.082;5.066;2022-12-24T11:17:59;23.13;;;5.43;;
65759;SDS011;52496;51.082;5.066;2022-12-24T11:20:33;36.42;;;5.72;;
65759;SDS011;52496;51.082;5.066;2022-12-24T11:23:04;15.00;;;4.65;;
65759;SDS011;52496;51.082;5.066;2022-12-24T11:25:37;25.85;;;5.25;;
65759;SDS011;52496;51.082;5.066;2022-12-24T11:28:11;24.17;;;6.38;;
65759;SDS011;52496;51.082;5.066;2022-12-24T11:30:57;22.35;;;4.60;;
65759;SDS011;52496;51.082;5.066;2022-12-24T11:33:44;27.55;;;5.15;;
65759;SDS011;52496;51.082;5.066;2022-12-24T11:36:19;22.60;;;5.22;;
65759;SDS011;52496;51.082;5.066;2022-12-24T11:38:53;20.23;;;5.20;;
65759;SDS011;52496;51.082;5.066;2022-12-24T11:41:27;20.65;;;5.13;;
65759;SDS011;52496;51.082;5.066;2022-12-24T11:44:07;28.98;;;5.57;;
65759;SDS011;52496;51.082;5.066;2022-12-24T11:46:39;21.98;;;4.95;;
65759;SDS011;52496;51.082;5.066;2022-12-24T11:49:21;15.18;;;5.13;;
65759;SDS011;52496;51.082;5.066;2022-12-24T11:57:47;18.40;;;4.47;;
65759;SDS011;52496;51.082;5.066;2022-12-24T12:00:24;18.60;;;5.85;;
65759;SDS011;52496;51.082;5.066;2022-12-24T12:02:56;14.65;;;4.85;;
65759;SDS011;52496;51.082;5.066;2022-12-24T12:05:31;23.25;;;6.03;;
65759;SDS011;52496;51.082;5.066;2022-12-24T12:08:35;19.08;;;4.88;;
65759;SDS011;52496;51.082;5.066;2022-12-24T12:10:59;29.00;;;4.70;;
65759;SDS011;52496;51.082;5.066;2022-12-24T12:13:42;19.17;;;4.53;;
65759;SDS011;52496;51.082;5.066;2022-12-24T12:19:31;21.90;;;4.65;;
65759;SDS011;52496;51.082;5.066;2022-12-24T12:22:10;24.33;;;5.13;;
65759;SDS011;52496;51.082;5.066;2022-12-24T12:25:02;30.02;;;4.95;;
65759;SDS011;52496;51.082;5.066;2022-12-24T12:27:36;21.98;;;4.80;;
65759;SDS011;52496;51.082;5.066;2022-12-24T12:30:15;16.40;;;4.30;;
65759;SDS011;52496;51.082;5.066;2022-12-24T12:35:41;20.25;;;4.95;;
65759;SDS011;52496;51.082;5.066;2022-12-24T12:38:22;26.33;;;5.63;;
65759;SDS011;52496;51.082;5.066;2022-12-24T12:55:48;20.35;;;5.00;;
65759;SDS011;52496;51.082;5.066;2022-12-24T12:58:26;14.20;;;4.40;;
65759;SDS011;52496;51.082;5.066;2022-12-24T13:01:23;22.48;;;5.38;;
65759;SDS011;52496;51.082;5.066;2022-12-24T13:07:35;20.08;;;4.65;;
65759;SDS011;52496;51.082;5.066;2022-12-24T13:21:29;19.27;;;4.60;;
65759;SDS011;52496;51.082;5.066;2022-12-24T13:24:19;22.67;;;4.65;;
65759;SDS011;52496;51.082;5.066;2022-12-24T13:26:58;25.20;;;4.53;;
65759;SDS011;52496;51.082;5.066;2022-12-24T13:29:41;21.17;;;5.00;;
65759;SDS011;52496;51.082;5.066;2022-12-24T13:42:50;18.48;;;4.85;;
65759;SDS011;52496;51.082;5.066;2022-12-24T13:53:41;19.25;;;4.60;;
65759;SDS011;52496;51.082;5.066;2022-12-24T13:58:49;25.90;;;6.25;;
65759;SDS011;52496;51.082;5.066;2022-12-24T14:01:37;30.48;;;6.32;;
65759;SDS011;52496;51.082;5.066;2022-12-24T14:04:20;16.40;;;4.30;;
65759;SDS011;52496;51.082;5.066;2022-12-24T14:06:56;23.27;;;5.20;;
65759;SDS011;52496;51.082;5.066;2022-12-24T14:09:29;25.10;;;5.13;;
65759;SDS011;52496;51.082;5.066;2022-12-24T14:14:38;18.48;;;5.18;;
65759;SDS011;52496;51.082;5.066;2022-12-24T14:17:23;23.35;;;5.03;;
65759;SDS011;52496;51.082;5.066;2022-12-24T14:19:56;19.98;;;4.60;;
65759;SDS011;52496;51.082;5.066;2022-12-24T14:22:33;23.33;;;5.88;;
65759;SDS011;52496;51.082;5.066;2022-12-24T14:25:18;20.98;;;5.22;;
65759;SDS011;52496;51.082;5.066;2022-12-24T14:27:57;27.02;;;5.85;;
65759;SDS011;52496;51.082;5.066;2022-12-24T14:30:33;25.77;;;6.63;;
65759;SDS011;52496;51.082;5.066;2022-12-24T14:33:03;18.58;;;4.90;;
65759;SDS011;52496;51.082;5.066;2022-12-24T14:35:34;24.35;;;5.72;;
65759;SDS011;52496;51.082;5.066;2022-12-24T14:38:16;26.17;;;4.93;;
65759;SDS011;52496;51.082;5.066;2022-12-24T14:41:06;18.77;;;5.32;;
65759;SDS011;52496;51.082;5.066;2022-12-24T14:44:03;26.83;;;5.03;;
65759;SDS011;52496;51.082;5.066;2022-12-24T14:52:35;21.13;;;4.22;;
65759;SDS011;52496;51.082;5.066;2022-12-24T15:00:55;14.23;;;4.18;;
65759;SDS011;52496;51.082;5.066;2022-12-24T15:03:33;15.15;;;4.72;;
65759;SDS011;52496;51.082;5.066;2022-12-24T15:06:04;21.92;;;5.50;;
65759;SDS011;52496;51.082;5.066;2022-12-24T15:08:43;20.75;;;8.18;;
65759;SDS011;52496;51.082;5.066;2022-12-24T15:11:18;18.80;;;5.18;;
65759;SDS011;52496;51.082;5.066;2022-12-24T15:13:52;27.35;;;6.93;;
65759;SDS011;52496;51.082;5.066;2022-12-24T15:16:30;15.48;;;5.45;;
65759;SDS011;52496;51.082;5.066;2022-12-24T15:19:06;23.35;;;5.53;;
65759;SDS011;52496;51.082;5.066;2022-12-24T15:21:45;17.23;;;4.80;;
65759;SDS011;52496;51.082;5.066;2022-12-24T15:24:29;22.40;;;5.63;;
65759;SDS011;52496;51.082;5.066;2022-12-24T15:27:02;17.63;;;5.10;;
65759;SDS011;52496;51.082;5.066;2022-12-24T15:29:44;20.20;;;5.55;;
65759;SDS011;52496;51.082;5.066;2022-12-24T15:32:18;19.70;;;4.88;;
65759;SDS011;52496;51.082;5.066;2022-12-24T15:34:50;15.13;;;4.25;;
65759;SDS011;52496;51.082;5.066;2022-12-24T15:37:28;18.92;;;3.97;;
65759;SDS011;52496;51.082;5.066;2022-12-24T15:40:16;21.17;;;4.95;;
65759;SDS011;52496;51.082;5.066;2022-12-24T15:42:50;20.95;;;5.18;;
65759;SDS011;52496;51.082;5.066;2022-12-24T15:45:23;16.23;;;4.32;;
65759;SDS011;52496;51.082;5.066;2022-12-24T15:47:59;21.38;;;5.47;;
65759;SDS011;52496;51.082;5.066;2022-12-24T15:50:36;16.65;;;6.93;;
65759;SDS011;52496;51.082;5.066;2022-12-24T15:53:20;18.85;;;5.88;;
65759;SDS011;52496;51.082;5.066;2022-12-24T15:56:08;16.48;;;5.53;;
65759;SDS011;52496;51.082;5.066;2022-12-24T16:01:48;17.95;;;4.93;;
65759;SDS011;52496;51.082;5.066;2022-12-24T16:06:58;20.27;;;4.78;;
65759;SDS011;52496;51.082;5.066;2022-12-24T16:12:09;22.00;;;4.93;;
65759;SDS011;52496;51.082;5.066;2022-12-24T16:14:54;20.55;;;6.53;;
65759;SDS011;52496;51.082;5.066;2022-12-24T16:17:28;23.80;;;6.50;;
65759;SDS011;52496;51.082;5.066;2022-12-24T16:20:04;27.27;;;8.00;;
65759;SDS011;52496;51.082;5.066;2022-12-24T16:22:45;24.60;;;8.00;;
65759;SDS011;52496;51.082;5.066;2022-12-24T16:27:48;26.60;;;8.30;;
65759;SDS011;52496;51.082;5.066;2022-12-24T16:30:20;27.05;;;6.45;;
65759;SDS011;52496;51.082;5.066;2022-12-24T16:32:52;17.20;;;5.68;;
65759;SDS011;52496;51.082;5.066;2022-12-24T16:35:26;22.98;;;6.35;;
65759;SDS011;52496;51.082;5.066;2022-12-24T16:38:02;21.67;;;5.35;;
65759;SDS011;52496;51.082;5.066;2022-12-24T16:40:33;15.48;;;6.75;;
65759;SDS011;52496;51.082;5.066;2022-12-24T16:43:03;19.25;;;5.55;;
65759;SDS011;52496;51.082;5.066;2022-12-24T16:45:53;18.95;;;6.20;;
65759;SDS011;52496;51.082;5.066;2022-12-24T16:48:28;24.58;;;6.20;;
65759;SDS011;52496;51.082;5.066;2022-12-24T16:50:59;27.58;;;6.60;;
65759;SDS011;52496;51.082;5.066;2022-12-24T16:53:29;21.90;;;6.10;;
65759;SDS011;52496;51.082;5.066;2022-12-24T16:56:00;22.75;;;6.75;;
65759;SDS011;52496;51.082;5.066;2022-12-24T16:58:31;16.08;;;6.45;;
65759;SDS011;52496;51.082;5.066;2022-12-24T17:01:06;20.73;;;6.45;;
65759;SDS011;52496;51.082;5.066;2022-12-24T17:03:37;18.88;;;6.95;;
65759;SDS011;52496;51.082;5.066;2022-12-24T17:06:08;21.65;;;6.50;;
65759;SDS011;52496;51.082;5.066;2022-12-24T17:08:38;23.45;;;6.78;;
65759;SDS011;52496;51.082;5.066;2022-12-24T17:11:09;20.70;;;6.18;;
65759;SDS011;52496;51.082;5.066;2022-12-24T17:13:40;26.67;;;7.63;;
65759;SDS011;52496;51.082;5.066;2022-12-24T17:16:10;19.40;;;7.10;;
65759;SDS011;52496;51.082;5.066;2022-12-24T17:18:41;18.35;;;7.93;;
65759;SDS011;52496;51.082;5.066;2022-12-24T17:21:11;24.45;;;8.80;;
65759;SDS011;52496;51.082;5.066;2022-12-24T17:23:42;28.55;;;10.50;;
65759;SDS011;52496;51.082;5.066;2022-12-24T17:26:13;26.67;;;10.00;;
65759;SDS011;52496;51.082;5.066;2022-12-24T17:28:44;36.85;;;11.30;;
65759;SDS011;52496;51.082;5.066;2022-12-24T17:31:15;29.58;;;9.95;;
65759;SDS011;52496;51.082;5.066;2022-12-24T17:33:47;29.35;;;9.82;;
65759;SDS011;52496;51.082;5.066;2022-12-24T17:36:19;35.55;;;11.25;;